Darstellungsparameter: Aktuell verwendete Einstellungen:
Skalierung der Graphiken ... ?
xyx+y,   Skalierungsfaktor:      Skalierung: Modus: x, Faktor: 1
Darstellungszeitraum ... ?
Vom - - bis: - -   Zeitraum: 04.10.2019 - 05.10.2019
Min/Max/Avg-Anzeige ... ?
Zeige MMA aktuell
Zeige MMA Monat
Zeige MMA alles
Zeige --A aktuell
Zeige --A Monat
Zeige --A alles
Keine MMA-Anzeige
MMA:
Keine MMA-Graphiken
MMA-Basis: 04.10.2019 - 05.10.2019
Quicknavigation für Darstellung... ?
Tage:      1T, 2T, 3T, 5T -1T -2T -3T -5T +1T +2T +3T +5T
Wochen: 1W, 2W, 3W -1W -2W -3W +1W +2W +3W
Monate: 1M, 3M, 6M -1M -3M -6M +1M +3M +6M
Jahre:    1J, 3J, 5J, 10J -1J -3J -5J -10J +1J +3J +5J +10J
Nutze für die Darstellung ... ?
Originaldaten oder Mittelwerte auf ...
Stundenbasis Tagesbasis Wochenbasis
Monatsbasis Jahresbasis      Datenbasis: Original-Daten
Darstellen als:
Statistik (Auto) Statistik J:M      Darstellung:
Zur Graphik,    zurück zur Übersicht aller Sensoren.
 
Tabellarische Datenbersicht: ?
 
Sensor: Nr:Datum:Temp:Feuchte:Taupunkt:
Aussen-T/F 1 04-10-2019 00:00:00 8.4 C 96 % 7.8 C
2 04-10-2019 00:05:00 8.4 C 96 % 7.8 C
3 04-10-2019 00:10:00 8.4 C 96 % 7.8 C
4 04-10-2019 00:15:00 8.4 C 96 % 7.8 C
5 04-10-2019 00:20:00 8.4 C 96 % 7.8 C
6 04-10-2019 00:25:00 8.5 C 96 % 7.9 C
7 04-10-2019 00:30:00 8.4 C 96 % 7.8 C
8 04-10-2019 00:35:00 8.4 C 96 % 7.8 C
9 04-10-2019 00:40:00 8.4 C 96 % 7.8 C
10 04-10-2019 00:45:00 8.4 C 96 % 7.8 C
11 04-10-2019 00:50:00 8.3 C 96 % 7.7 C
12 04-10-2019 00:55:00 8.2 C 96 % 7.6 C
13 04-10-2019 01:00:00 8.1 C 96 % 7.5 C
14 04-10-2019 01:05:00 8.1 C 96 % 7.5 C
15 04-10-2019 01:10:00 8.1 C 96 % 7.5 C
16 04-10-2019 01:15:00 8.2 C 96 % 7.6 C
17 04-10-2019 01:20:00 8.2 C 96 % 7.6 C
18 04-10-2019 01:25:00 8.2 C 96 % 7.6 C
19 04-10-2019 01:30:00 8.2 C 96 % 7.6 C
20 04-10-2019 01:35:00 8.3 C 96 % 7.7 C
21 04-10-2019 01:40:00 8.3 C 96 % 7.7 C
22 04-10-2019 01:45:00 8.3 C 97 % 7.85 C
23 04-10-2019 01:50:00 8.3 C 97 % 7.85 C
24 04-10-2019 01:55:00 8.3 C 97 % 7.85 C
25 04-10-2019 02:00:00 8.3 C 97 % 7.85 C
Sensor: Nr:Datum:Temp:Feuchte:Taupunkt:
Aussen-T/F 26 04-10-2019 02:05:00 8.3 C 97 % 7.85 C
27 04-10-2019 02:10:00 8.3 C 96 % 7.7 C
28 04-10-2019 02:15:00 8.3 C 96 % 7.7 C
29 04-10-2019 02:20:00 8.2 C 96 % 7.6 C
30 04-10-2019 02:25:00 8.2 C 96 % 7.6 C
31 04-10-2019 02:30:00 8.2 C 96 % 7.6 C
32 04-10-2019 02:35:00 8.1 C 96 % 7.5 C
33 04-10-2019 02:40:00 8.1 C 97 % 7.65 C
34 04-10-2019 02:45:00 8.1 C 97 % 7.65 C
35 04-10-2019 02:50:00 8.1 C 97 % 7.65 C
36 04-10-2019 02:55:00 8.1 C 97 % 7.65 C
37 04-10-2019 03:00:00 8.1 C 97 % 7.65 C
38 04-10-2019 03:05:00 8.1 C 97 % 7.65 C
39 04-10-2019 03:10:00 8.1 C 97 % 7.65 C
40 04-10-2019 03:15:00 8.1 C 97 % 7.65 C
41 04-10-2019 03:20:00 8.1 C 97 % 7.65 C
42 04-10-2019 03:25:00 8.1 C 97 % 7.65 C
43 04-10-2019 03:30:00 8.1 C 97 % 7.65 C
44 04-10-2019 03:35:00 8.1 C 97 % 7.65 C
45 04-10-2019 03:40:00 8 C 97 % 7.55 C
46 04-10-2019 03:45:00 8 C 97 % 7.55 C
47 04-10-2019 03:50:00 8 C 96 % 7.4 C
48 04-10-2019 03:55:00 7.9 C 97 % 7.45 C
49 04-10-2019 04:00:00 7.9 C 97 % 7.45 C
50 04-10-2019 04:05:00 7.9 C 97 % 7.45 C
Sensor: Nr:Datum:Temp:Feuchte:Taupunkt:
Aussen-T/F 51 04-10-2019 04:10:00 7.8 C 97 % 7.35 C
52 04-10-2019 04:15:00 7.8 C 97 % 7.35 C
53 04-10-2019 04:20:00 7.7 C 97 % 7.25 C
54 04-10-2019 04:25:00 7.7 C 97 % 7.25 C
55 04-10-2019 04:30:00 7.6 C 96 % 7 C
56 04-10-2019 04:35:00 7.6 C 96 % 7 C
57 04-10-2019 04:40:00 7.6 C 97 % 7.16 C
58 04-10-2019 04:45:00 7.6 C 97 % 7.16 C
59 04-10-2019 04:50:00 7.7 C 97 % 7.25 C
60 04-10-2019 04:55:00 7.7 C 97 % 7.25 C
61 04-10-2019 05:00:00 7.8 C 97 % 7.35 C
62 04-10-2019 05:05:00 7.8 C 97 % 7.35 C
63 04-10-2019 05:10:00 7.9 C 97 % 7.45 C
64 04-10-2019 05:15:00 7.9 C 97 % 7.45 C
65 04-10-2019 05:20:00 7.9 C 97 % 7.45 C
66 04-10-2019 05:25:00 7.9 C 97 % 7.45 C
67 04-10-2019 05:30:00 7.9 C 97 % 7.45 C
68 04-10-2019 05:35:00 7.9 C 97 % 7.45 C
69 04-10-2019 05:40:00 8 C 97 % 7.55 C
70 04-10-2019 05:45:00 7.9 C 97 % 7.45 C
71 04-10-2019 05:50:00 8 C 97 % 7.55 C
72 04-10-2019 05:55:00 8 C 97 % 7.55 C
73 04-10-2019 06:00:00 8 C 97 % 7.55 C
74 04-10-2019 06:05:00 7.9 C 97 % 7.45 C
75 04-10-2019 06:10:00 7.9 C 97 % 7.45 C
Sensor: Nr:Datum:Temp:Feuchte:Taupunkt:
Aussen-T/F 76 04-10-2019 06:15:00 7.9 C 97 % 7.45 C
77 04-10-2019 06:20:00 7.9 C 97 % 7.45 C
78 04-10-2019 06:25:00 7.9 C 97 % 7.45 C
79 04-10-2019 06:30:00 7.9 C 97 % 7.45 C
80 04-10-2019 06:35:00 7.9 C 97 % 7.45 C
81 04-10-2019 06:40:00 8 C 97 % 7.55 C
82 04-10-2019 06:45:00 8.1 C 97 % 7.65 C
83 04-10-2019 06:50:00 8.1 C 97 % 7.65 C
84 04-10-2019 06:55:00 8.1 C 97 % 7.65 C
85 04-10-2019 07:00:00 8.1 C 97 % 7.65 C
86 04-10-2019 07:05:00 8.1 C 97 % 7.65 C
87 04-10-2019 07:10:00 8.1 C 97 % 7.65 C
88 04-10-2019 07:15:00 8.1 C 97 % 7.65 C
89 04-10-2019 07:20:00 8.1 C 97 % 7.65 C
90 04-10-2019 07:25:00 8.1 C 97 % 7.65 C
91 04-10-2019 07:30:00 8.1 C 97 % 7.65 C
92 04-10-2019 07:35:00 8.1 C 97 % 7.65 C
93 04-10-2019 07:40:00 8.2 C 97 % 7.75 C
94 04-10-2019 07:45:00 8.2 C 97 % 7.75 C
95 04-10-2019 07:50:00 8.2 C 97 % 7.75 C
96 04-10-2019 07:55:00 8.2 C 97 % 7.75 C
97 04-10-2019 08:00:00 8.2 C 97 % 7.75 C
98 04-10-2019 08:05:00 8.3 C 97 % 7.85 C
99 04-10-2019 08:10:00 8.3 C 97 % 7.85 C
100 04-10-2019 08:15:00 8.3 C 97 % 7.85 C
Sensor: Nr:Datum:Temp:Feuchte:Taupunkt:
Aussen-T/F 101 04-10-2019 08:20:00 8.4 C 97 % 7.95 C
102 04-10-2019 08:25:00 8.4 C 97 % 7.95 C
103 04-10-2019 08:30:00 8.6 C 97 % 8.15 C
104 04-10-2019 08:35:00 8.6 C 97 % 8.15 C
105 04-10-2019 08:40:00 8.6 C 97 % 8.15 C
106 04-10-2019 08:45:00 8.6 C 97 % 8.15 C
107 04-10-2019 08:50:00 8.6 C 97 % 8.15 C
108 04-10-2019 08:55:00 8.6 C 97 % 8.15 C
109 04-10-2019 09:00:00 8.6 C 97 % 8.15 C
110 04-10-2019 09:05:00 8.6 C 97 % 8.15 C
111 04-10-2019 09:10:00 8.6 C 97 % 8.15 C
112 04-10-2019 09:15:00 8.7 C 97 % 8.25 C
113 04-10-2019 09:20:00 8.7 C 97 % 8.25 C
114 04-10-2019 09:25:00 8.7 C 97 % 8.25 C
115 04-10-2019 09:30:00 8.7 C 97 % 8.25 C
116 04-10-2019 09:35:00 8.7 C 97 % 8.25 C
117 04-10-2019 09:40:00 8.7 C 97 % 8.25 C
118 04-10-2019 09:45:00 8.8 C 97 % 8.35 C
119 04-10-2019 09:50:00 8.8 C 97 % 8.35 C
120 04-10-2019 09:55:00 8.9 C 97 % 8.45 C
121 04-10-2019 10:00:00 8.9 C 97 % 8.45 C
122 04-10-2019 10:05:00 9 C 97 % 8.55 C
123 04-10-2019 10:10:00 9.1 C 97 % 8.65 C
124 04-10-2019 10:15:00 9.1 C 97 % 8.65 C
125 04-10-2019 10:20:00 9.1 C 97 % 8.65 C
Sensor: Nr:Datum:Temp:Feuchte:Taupunkt:
Aussen-T/F 126 04-10-2019 10:25:00 9 C 97 % 8.55 C
127 04-10-2019 10:30:00 9.1 C 97 % 8.65 C
128 04-10-2019 10:35:00 9.1 C 97 % 8.65 C
129 04-10-2019 10:40:00 9.2 C 97 % 8.75 C
130 04-10-2019 10:45:00 9.2 C 96 % 8.6 C
131 04-10-2019 10:50:00 9.3 C 97 % 8.85 C
132 04-10-2019 10:55:00 9.4 C 97 % 8.95 C
133 04-10-2019 11:00:00 9.4 C 96 % 8.8 C
134 04-10-2019 11:05:00 9.5 C 96 % 8.89 C
135 04-10-2019 11:10:00 9.6 C 96 % 8.99 C
136 04-10-2019 11:15:00 9.7 C 96 % 9.09 C
137 04-10-2019 11:20:00 9.7 C 96 % 9.09 C
138 04-10-2019 11:25:00 9.7 C 96 % 9.09 C
139 04-10-2019 11:30:00 9.8 C 96 % 9.19 C
140 04-10-2019 11:35:00 9.8 C 96 % 9.19 C
141 04-10-2019 11:40:00 9.8 C 96 % 9.19 C
142 04-10-2019 11:45:00 9.9 C 96 % 9.29 C
143 04-10-2019 11:50:00 10 C 96 % 9.39 C
144 04-10-2019 11:55:00 10.2 C 96 % 9.59 C
145 04-10-2019 12:00:00 10.3 C 96 % 9.69 C
146 04-10-2019 12:05:00 10.4 C 96 % 9.79 C
147 04-10-2019 12:10:00 10.6 C 96 % 9.99 C
148 04-10-2019 12:15:00 10.6 C 96 % 9.99 C
149 04-10-2019 12:20:00 10.6 C 95 % 9.83 C
150 04-10-2019 12:25:00 10.6 C 95 % 9.83 C
Sensor: Nr:Datum:Temp:Feuchte:Taupunkt:
Aussen-T/F 151 04-10-2019 12:30:00 10.7 C 95 % 9.93 C
152 04-10-2019 12:35:00 10.7 C 95 % 9.93 C
153 04-10-2019 12:40:00 10.8 C 95 % 10.03 C
154 04-10-2019 12:45:00 10.8 C 95 % 10.03 C
155 04-10-2019 12:50:00 10.8 C 95 % 10.03 C
156 04-10-2019 12:55:00 10.9 C 95 % 10.13 C
157 04-10-2019 13:00:00 10.9 C 94 % 9.97 C
158 04-10-2019 13:05:00 11.1 C 95 % 10.33 C
159 04-10-2019 13:10:00 11.1 C 95 % 10.33 C
160 04-10-2019 13:15:00 11.1 C 94 % 10.17 C
161 04-10-2019 13:20:00 11.2 C 94 % 10.27 C
162 04-10-2019 13:25:00 11.2 C 94 % 10.27 C
163 04-10-2019 13:30:00 11.2 C 94 % 10.27 C
164 04-10-2019 13:35:00 11.3 C 94 % 10.37 C
165 04-10-2019 13:40:00 11.3 C 95 % 10.53 C
166 04-10-2019 13:45:00 11.4 C 95 % 10.63 C
167 04-10-2019 13:50:00 11.6 C 95 % 10.83 C
168 04-10-2019 13:55:00 11.7 C 95 % 10.93 C
169 04-10-2019 14:00:00 11.9 C 95 % 11.13 C
170 04-10-2019 14:05:00 12.2 C 95 % 11.42 C
171 04-10-2019 14:10:00 12.3 C 94 % 11.36 C
172 04-10-2019 14:15:00 12.6 C 93 % 11.5 C
173 04-10-2019 14:20:00 12.8 C 92 % 11.53 C
174 04-10-2019 14:25:00 13.1 C 91 % 11.67 C
175 04-10-2019 14:30:00 13.4 C 90 % 11.79 C
Sensor: Nr:Datum:Temp:Feuchte:Taupunkt:
Aussen-T/F 176 04-10-2019 14:35:00 13.7 C 89 % 11.92 C
177 04-10-2019 14:40:00 13.7 C 88 % 11.75 C
178 04-10-2019 14:45:00 13.6 C 88 % 11.65 C
179 04-10-2019 14:50:00 13.5 C 87 % 11.38 C
180 04-10-2019 14:55:00 13.6 C 89 % 11.82 C
181 04-10-2019 15:00:00 13.7 C 88 % 11.75 C
182 04-10-2019 15:05:00 13.7 C 89 % 11.92 C
183 04-10-2019 15:10:00 13.7 C 87 % 11.58 C
184 04-10-2019 15:15:00 13.8 C 88 % 11.85 C
185 04-10-2019 15:20:00 13.7 C 88 % 11.75 C
186 04-10-2019 15:25:00 13.7 C 87 % 11.58 C
187 04-10-2019 15:30:00 13.7 C 89 % 11.92 C
188 04-10-2019 15:35:00 13.8 C 87 % 11.68 C
189 04-10-2019 15:40:00 13.9 C 88 % 11.95 C
190 04-10-2019 15:45:00 13.9 C 87 % 11.77 C
191 04-10-2019 15:50:00 14.1 C 88 % 12.14 C
192 04-10-2019 15:55:00 14.1 C 88 % 12.14 C
193 04-10-2019 16:00:00 14.2 C 87 % 12.07 C
194 04-10-2019 16:05:00 14.2 C 88 % 12.24 C
195 04-10-2019 16:10:00 14.2 C 87 % 12.07 C
196 04-10-2019 16:15:00 14.2 C 88 % 12.24 C
197 04-10-2019 16:20:00 14.1 C 89 % 12.32 C
198 04-10-2019 16:25:00 14.1 C 89 % 12.32 C
199 04-10-2019 16:30:00 14.1 C 90 % 12.49 C
200 04-10-2019 16:35:00 14.1 C 91 % 12.65 C
Sensor: Nr:Datum:Temp:Feuchte:Taupunkt:
Aussen-T/F 201 04-10-2019 16:40:00 14 C 91 % 12.56 C
202 04-10-2019 16:45:00 13.9 C 91 % 12.46 C
203 04-10-2019 16:50:00 13.8 C 91 % 12.36 C
204 04-10-2019 16:55:00 13.8 C 92 % 12.52 C
205 04-10-2019 17:00:00 13.7 C 92 % 12.42 C
206 04-10-2019 17:05:00 13.6 C 92 % 12.33 C
207 04-10-2019 17:10:00 13.6 C 92 % 12.33 C
208 04-10-2019 17:15:00 13.5 C 92 % 12.23 C
209 04-10-2019 17:20:00 13.4 C 93 % 12.29 C
210 04-10-2019 17:25:00 13.3 C 93 % 12.19 C
211 04-10-2019 17:30:00 13.3 C 93 % 12.19 C
212 04-10-2019 17:35:00 13.3 C 93 % 12.19 C
213 04-10-2019 17:40:00 13.3 C 94 % 12.36 C
214 04-10-2019 17:45:00 13.2 C 94 % 12.26 C
215 04-10-2019 17:50:00 13.1 C 93 % 11.99 C
216 04-10-2019 17:55:00 13.1 C 94 % 12.16 C
217 04-10-2019 18:00:00 13 C 94 % 12.06 C
218 04-10-2019 18:05:00 12.9 C 94 % 11.96 C
219 04-10-2019 18:10:00 12.8 C 94 % 11.86 C
220 04-10-2019 18:15:00 12.7 C 94 % 11.76 C
221 04-10-2019 18:20:00 12.6 C 94 % 11.66 C
222 04-10-2019 18:25:00 12.4 C 94 % 11.46 C
223 04-10-2019 18:30:00 12.2 C 94 % 11.26 C
224 04-10-2019 18:35:00 12.1 C 94 % 11.16 C
225 04-10-2019 18:40:00 12 C 94 % 11.07 C
Sensor: Nr:Datum:Temp:Feuchte:Taupunkt:
Aussen-T/F 226 04-10-2019 18:45:00 11.9 C 94 % 10.97 C
227 04-10-2019 18:50:00 11.9 C 95 % 11.13 C
228 04-10-2019 18:55:00 11.8 C 95 % 11.03 C
229 04-10-2019 19:00:00 11.8 C 95 % 11.03 C
230 04-10-2019 19:05:00 11.7 C 95 % 10.93 C
231 04-10-2019 19:10:00 11.7 C 95 % 10.93 C
232 04-10-2019 19:15:00 11.7 C 95 % 10.93 C
233 04-10-2019 19:20:00 11.7 C 95 % 10.93 C
234 04-10-2019 19:25:00 11.7 C 95 % 10.93 C
235 04-10-2019 19:30:00 11.7 C 95 % 10.93 C
236 04-10-2019 19:35:00 11.7 C 96 % 11.08 C
237 04-10-2019 19:40:00 11.7 C 96 % 11.08 C
238 04-10-2019 19:45:00 11.7 C 96 % 11.08 C
239 04-10-2019 19:50:00 11.7 C 96 % 11.08 C
240 04-10-2019 19:55:00 11.7 C 96 % 11.08 C
241 04-10-2019 20:00:00 11.8 C 96 % 11.18 C
242 04-10-2019 20:05:00 11.7 C 96 % 11.08 C
243 04-10-2019 20:10:00 11.7 C 96 % 11.08 C
244 04-10-2019 20:15:00 11.7 C 96 % 11.08 C
245 04-10-2019 20:20:00 11.6 C 96 % 10.98 C
246 04-10-2019 20:25:00 11.6 C 96 % 10.98 C
247 04-10-2019 20:30:00 11.6 C 96 % 10.98 C
248 04-10-2019 20:35:00 11.6 C 96 % 10.98 C
249 04-10-2019 20:40:00 11.6 C 96 % 10.98 C
250 04-10-2019 20:45:00 11.5 C 96 % 10.88 C
Sensor: Nr:Datum:Temp:Feuchte:Taupunkt:
Aussen-T/F 251 04-10-2019 20:50:00 11.6 C 96 % 10.98 C
252 04-10-2019 20:55:00 11.6 C 96 % 10.98 C
253 04-10-2019 21:00:00 11.6 C 96 % 10.98 C
254 04-10-2019 21:05:00 11.6 C 96 % 10.98 C
255 04-10-2019 21:10:00 11.6 C 96 % 10.98 C
256 04-10-2019 21:15:00 11.6 C 96 % 10.98 C
257 04-10-2019 21:20:00 11.6 C 96 % 10.98 C
258 04-10-2019 21:25:00 11.7 C 96 % 11.08 C
259 04-10-2019 21:30:00 11.7 C 96 % 11.08 C
260 04-10-2019 21:35:00 11.7 C 96 % 11.08 C
261 04-10-2019 21:40:00 11.7 C 96 % 11.08 C
262 04-10-2019 21:45:00 11.7 C 96 % 11.08 C
263 04-10-2019 21:50:00 11.7 C 96 % 11.08 C
264 04-10-2019 21:55:00 11.7 C 96 % 11.08 C
265 04-10-2019 22:00:00 11.7 C 96 % 11.08 C
266 04-10-2019 22:05:00 11.7 C 95 % 10.93 C
267 04-10-2019 22:10:00 11.7 C 95 % 10.93 C
268 04-10-2019 22:15:00 11.7 C 95 % 10.93 C
269 04-10-2019 22:20:00 11.7 C 95 % 10.93 C
270 04-10-2019 22:25:00 11.7 C 96 % 11.08 C
271 04-10-2019 22:30:00 11.7 C 95 % 10.93 C
272 04-10-2019 22:35:00 11.7 C 95 % 10.93 C
273 04-10-2019 22:40:00 11.7 C 95 % 10.93 C
274 04-10-2019 22:45:00 11.7 C 95 % 10.93 C
275 04-10-2019 22:50:00 11.7 C 96 % 11.08 C
Sensor: Nr:Datum:Temp:Feuchte:Taupunkt:
Aussen-T/F 276 04-10-2019 22:55:00 11.6 C 96 % 10.98 C
277 04-10-2019 23:00:00 11.7 C 96 % 11.08 C
278 04-10-2019 23:05:00 11.6 C 96 % 10.98 C
279 04-10-2019 23:10:00 11.6 C 96 % 10.98 C
280 04-10-2019 23:15:00 11.7 C 96 % 11.08 C
281 04-10-2019 23:20:00 11.7 C 96 % 11.08 C
282 04-10-2019 23:25:00 11.7 C 95 % 10.93 C
283 04-10-2019 23:30:00 11.7 C 95 % 10.93 C
284 04-10-2019 23:35:00 11.7 C 95 % 10.93 C
285 04-10-2019 23:40:00 11.8 C 95 % 11.03 C
286 04-10-2019 23:45:00 11.8 C 95 % 11.03 C
287 04-10-2019 23:50:00 11.8 C 95 % 11.03 C
288 04-10-2019 23:55:00 11.8 C 95 % 11.03 C
289 05-10-2019 00:00:00 11.8 C 94 % 10.87 C
290 05-10-2019 00:05:00 11.8 C 94 % 10.87 C
291 05-10-2019 00:10:00 11.8 C 94 % 10.87 C
292 05-10-2019 00:15:00 11.9 C 94 % 10.97 C
293 05-10-2019 00:20:00 11.9 C 93 % 10.81 C
294 05-10-2019 00:25:00 11.9 C 92 % 10.64 C
295 05-10-2019 00:30:00 12 C 92 % 10.74 C
296 05-10-2019 00:35:00 12 C 92 % 10.74 C
297 05-10-2019 00:40:00 12.1 C 92 % 10.84 C
298 05-10-2019 00:45:00 12.1 C 92 % 10.84 C
299 05-10-2019 00:50:00 12.1 C 92 % 10.84 C
300 05-10-2019 00:55:00 12.2 C 91 % 10.78 C
Sensor: Nr:Datum:Temp:Feuchte:Taupunkt:
Aussen-T/F 301 05-10-2019 01:00:00 12.2 C 92 % 10.94 C
302 05-10-2019 01:05:00 12.3 C 92 % 11.04 C
303 05-10-2019 01:10:00 12.3 C 92 % 11.04 C
304 05-10-2019 01:15:00 12.2 C 92 % 10.94 C
305 05-10-2019 01:20:00 12.2 C 92 % 10.94 C
306 05-10-2019 01:25:00 12.1 C 92 % 10.84 C
307 05-10-2019 01:30:00 12 C 92 % 10.74 C
308 05-10-2019 01:35:00 11.9 C 92 % 10.64 C
309 05-10-2019 01:40:00 11.9 C 92 % 10.64 C
310 05-10-2019 01:45:00 11.9 C 92 % 10.64 C
311 05-10-2019 01:50:00 12 C 92 % 10.74 C
312 05-10-2019 01:55:00 12.1 C 92 % 10.84 C
313 05-10-2019 02:00:00 12 C 92 % 10.74 C
314 05-10-2019 02:05:00 11.9 C 92 % 10.64 C
315 05-10-2019 02:10:00 12 C 92 % 10.74 C
316 05-10-2019 02:15:00 12.1 C 91 % 10.68 C
317 05-10-2019 02:20:00 12.2 C 91 % 10.78 C
318 05-10-2019 02:25:00 12.2 C 91 % 10.78 C
319 05-10-2019 02:30:00 12.3 C 90 % 10.71 C
320 05-10-2019 02:35:00 12.3 C 91 % 10.87 C
321 05-10-2019 02:40:00 12.3 C 90 % 10.71 C
322 05-10-2019 02:45:00 12.4 C 89 % 10.64 C
323 05-10-2019 02:50:00 12.5 C 89 % 10.74 C
324 05-10-2019 02:55:00 12.5 C 90 % 10.91 C
325 05-10-2019 03:00:00 12.5 C 89 % 10.74 C
Sensor: Nr:Datum:Temp:Feuchte:Taupunkt:
Aussen-T/F 326 05-10-2019 03:05:00 12.5 C 90 % 10.91 C
327 05-10-2019 03:10:00 12.5 C 90 % 10.91 C
328 05-10-2019 03:15:00 12.4 C 91 % 10.97 C
329 05-10-2019 03:20:00 12.4 C 91 % 10.97 C
330 05-10-2019 03:25:00 12.3 C 92 % 11.04 C
331 05-10-2019 03:30:00 12.3 C 92 % 11.04 C
332 05-10-2019 03:35:00 12.2 C 92 % 10.94 C
333 05-10-2019 03:40:00 12.2 C 93 % 11.1 C
334 05-10-2019 03:45:00 12.1 C 93 % 11 C
335 05-10-2019 03:50:00 12.1 C 93 % 11 C
336 05-10-2019 03:55:00 12.1 C 93 % 11 C
337 05-10-2019 04:00:00 12 C 93 % 10.9 C
338 05-10-2019 04:05:00 11.9 C 93 % 10.81 C
339 05-10-2019 04:10:00 11.8 C 93 % 10.71 C
340 05-10-2019 04:15:00 11.7 C 93 % 10.61 C
341 05-10-2019 04:20:00 11.6 C 93 % 10.51 C
342 05-10-2019 04:25:00 11.6 C 93 % 10.51 C
343 05-10-2019 04:30:00 11.5 C 93 % 10.41 C
344 05-10-2019 04:35:00 11.4 C 93 % 10.31 C
345 05-10-2019 04:40:00 11.3 C 93 % 10.21 C
346 05-10-2019 04:45:00 11.3 C 93 % 10.21 C
347 05-10-2019 04:50:00 11.3 C 93 % 10.21 C
348 05-10-2019 04:55:00 11.2 C 94 % 10.27 C
349 05-10-2019 05:00:00 11.2 C 93 % 10.11 C
350 05-10-2019 05:05:00 11.1 C 93 % 10.01 C
Sensor: Nr:Datum:Temp:Feuchte:Taupunkt:
Aussen-T/F 351 05-10-2019 05:10:00 11 C 93 % 9.91 C
352 05-10-2019 05:15:00 10.9 C 93 % 9.81 C
353 05-10-2019 05:20:00 10.8 C 94 % 9.87 C
354 05-10-2019 05:25:00 10.8 C 94 % 9.87 C
355 05-10-2019 05:30:00 10.8 C 93 % 9.71 C
356 05-10-2019 05:35:00 10.7 C 94 % 9.77 C
357 05-10-2019 05:40:00 10.6 C 94 % 9.68 C
358 05-10-2019 05:45:00 10.5 C 94 % 9.58 C
359 05-10-2019 05:50:00 10.4 C 93 % 9.32 C
360 05-10-2019 05:55:00 10.3 C 93 % 9.22 C
361 05-10-2019 06:00:00 10.3 C 93 % 9.22 C
362 05-10-2019 06:05:00 10.3 C 93 % 9.22 C
363 05-10-2019 06:10:00 10.3 C 94 % 9.38 C
364 05-10-2019 06:15:00 10.2 C 94 % 9.28 C
365 05-10-2019 06:20:00 10.2 C 94 % 9.28 C
366 05-10-2019 06:25:00 10.2 C 94 % 9.28 C
367 05-10-2019 06:30:00 10.2 C 94 % 9.28 C
368 05-10-2019 06:35:00 10.2 C 94 % 9.28 C
369 05-10-2019 06:40:00 10.1 C 94 % 9.18 C
370 05-10-2019 06:45:00 10.2 C 94 % 9.28 C
371 05-10-2019 06:50:00 10.2 C 94 % 9.28 C
372 05-10-2019 06:55:00 10.1 C 94 % 9.18 C
373 05-10-2019 07:00:00 10.1 C 94 % 9.18 C
374 05-10-2019 07:05:00 10.1 C 94 % 9.18 C
375 05-10-2019 07:10:00 10.1 C 94 % 9.18 C
Sensor: Nr:Datum:Temp:Feuchte:Taupunkt:
Aussen-T/F 376 05-10-2019 07:15:00 10.1 C 94 % 9.18 C
377 05-10-2019 07:20:00 10.1 C 94 % 9.18 C
378 05-10-2019 07:25:00 10.1 C 93 % 9.02 C
379 05-10-2019 07:30:00 9.9 C 93 % 8.82 C
380 05-10-2019 07:35:00 9.9 C 93 % 8.82 C
381 05-10-2019 07:40:00 9.9 C 93 % 8.82 C
382 05-10-2019 07:45:00 9.9 C 93 % 8.82 C
383 05-10-2019 07:50:00 9.8 C 93 % 8.72 C
384 05-10-2019 07:55:00 9.8 C 93 % 8.72 C
385 05-10-2019 08:00:00 9.8 C 93 % 8.72 C
386 05-10-2019 08:05:00 9.8 C 93 % 8.72 C
387 05-10-2019 08:10:00 9.7 C 92 % 8.46 C
388 05-10-2019 08:15:00 9.8 C 92 % 8.56 C
389 05-10-2019 08:20:00 9.8 C 92 % 8.56 C
390 05-10-2019 08:25:00 9.7 C 92 % 8.46 C
391 05-10-2019 08:30:00 9.8 C 92 % 8.56 C
392 05-10-2019 08:35:00 9.8 C 92 % 8.56 C
393 05-10-2019 08:40:00 9.9 C 92 % 8.66 C
394 05-10-2019 08:45:00 9.9 C 91 % 8.5 C
395 05-10-2019 08:50:00 9.9 C 91 % 8.5 C
396 05-10-2019 08:55:00 9.9 C 91 % 8.5 C
397 05-10-2019 09:00:00 10 C 91 % 8.6 C
398 05-10-2019 09:05:00 10.1 C 91 % 8.7 C
399 05-10-2019 09:10:00 10.1 C 91 % 8.7 C
400 05-10-2019 09:15:00 10.1 C 91 % 8.7 C
Sensor: Nr:Datum:Temp:Feuchte:Taupunkt:
Aussen-T/F 401 05-10-2019 09:20:00 10.1 C 91 % 8.7 C
402 05-10-2019 09:25:00 10.2 C 91 % 8.8 C
403 05-10-2019 09:30:00 10.2 C 91 % 8.8 C
404 05-10-2019 09:35:00 10.2 C 90 % 8.64 C
405 05-10-2019 09:40:00 10.3 C 91 % 8.9 C
406 05-10-2019 09:45:00 10.3 C 90 % 8.73 C
407 05-10-2019 09:50:00 10.3 C 90 % 8.73 C
408 05-10-2019 09:55:00 10.3 C 90 % 8.73 C
409 05-10-2019 10:00:00 10.4 C 90 % 8.83 C
410 05-10-2019 10:05:00 10.4 C 90 % 8.83 C
411 05-10-2019 10:10:00 10.4 C 90 % 8.83 C
412 05-10-2019 10:15:00 10.4 C 90 % 8.83 C
413 05-10-2019 10:20:00 10.5 C 89 % 8.77 C
414 05-10-2019 10:25:00 10.6 C 88 % 8.7 C
415 05-10-2019 10:30:00 10.6 C 89 % 8.86 C
416 05-10-2019 10:35:00 10.6 C 88 % 8.7 C
417 05-10-2019 10:40:00 10.7 C 88 % 8.8 C
418 05-10-2019 10:45:00 10.7 C 87 % 8.63 C
419 05-10-2019 10:50:00 10.7 C 86 % 8.46 C
420 05-10-2019 10:55:00 10.7 C 86 % 8.46 C
421 05-10-2019 11:00:00 10.7 C 84 % 8.11 C
422 05-10-2019 11:05:00 10.7 C 83 % 7.93 C
423 05-10-2019 11:10:00 10.8 C 83 % 8.03 C
424 05-10-2019 11:15:00 10.7 C 82 % 7.76 C
425 05-10-2019 11:20:00 10.7 C 82 % 7.76 C
Sensor: Nr:Datum:Temp:Feuchte:Taupunkt:
Aussen-T/F 426 05-10-2019 11:25:00 10.7 C 82 % 7.76 C
427 05-10-2019 11:30:00 10.7 C 81 % 7.58 C
428 05-10-2019 11:35:00 10.7 C 82 % 7.76 C
429 05-10-2019 11:40:00 10.7 C 83 % 7.93 C
430 05-10-2019 11:45:00 10.7 C 83 % 7.93 C
431 05-10-2019 11:50:00 10.7 C 82 % 7.76 C
432 05-10-2019 11:55:00 10.7 C 83 % 7.93 C
433 05-10-2019 12:00:00 10.7 C 84 % 8.11 C
434 05-10-2019 12:05:00 10.8 C 84 % 8.21 C
435 05-10-2019 12:10:00 11 C 84 % 8.4 C
436 05-10-2019 12:15:00 11.1 C 83 % 8.33 C
437 05-10-2019 12:20:00 11.2 C 81 % 8.06 C
438 05-10-2019 12:25:00 11.2 C 80 % 7.88 C
439 05-10-2019 12:30:00 11.2 C 79 % 7.7 C
440 05-10-2019 12:35:00 11.2 C 79 % 7.7 C
441 05-10-2019 12:40:00 11.3 C 80 % 7.98 C
442 05-10-2019 12:45:00 11.4 C 77 % 7.52 C
443 05-10-2019 12:50:00 11.6 C 78 % 7.9 C
444 05-10-2019 12:55:00 11.7 C 78 % 8 C
445 05-10-2019 13:00:00 11.7 C 78 % 8 C
446 05-10-2019 13:05:00 11.7 C 78 % 8 C
447 05-10-2019 13:10:00 11.7 C 77 % 7.81 C
448 05-10-2019 13:15:00 11.8 C 78 % 8.09 C
449 05-10-2019 13:20:00 11.9 C 78 % 8.19 C
450 05-10-2019 13:25:00 11.9 C 78 % 8.19 C
Sensor: Nr:Datum:Temp:Feuchte:Taupunkt:
Aussen-T/F 451 05-10-2019 13:30:00 12 C 77 % 8.1 C
452 05-10-2019 13:35:00 12 C 76 % 7.91 C
453 05-10-2019 13:40:00 12 C 78 % 8.29 C
454 05-10-2019 13:45:00 12.1 C 78 % 8.38 C
455 05-10-2019 13:50:00 12 C 77 % 8.1 C
456 05-10-2019 13:55:00 12 C 78 % 8.29 C
457 05-10-2019 14:00:00 11.9 C 77 % 8 C
458 05-10-2019 14:05:00 11.9 C 78 % 8.19 C
459 05-10-2019 14:10:00 11.9 C 78 % 8.19 C
460 05-10-2019 14:15:00 11.8 C 78 % 8.09 C
461 05-10-2019 14:20:00 11.8 C 79 % 8.28 C
462 05-10-2019 14:25:00 11.8 C 79 % 8.28 C
463 05-10-2019 14:30:00 11.8 C 78 % 8.09 C
464 05-10-2019 14:35:00 11.8 C 78 % 8.09 C
465 05-10-2019 14:40:00 11.9 C 78 % 8.19 C
466 05-10-2019 14:45:00 11.9 C 78 % 8.19 C
467 05-10-2019 14:50:00 12.1 C 77 % 8.2 C
468 05-10-2019 14:55:00 12.1 C 79 % 8.57 C
469 05-10-2019 15:00:00 12.2 C 80 % 8.86 C
470 05-10-2019 15:05:00 12.3 C 78 % 8.58 C
471 05-10-2019 15:10:00 12.3 C 77 % 8.39 C
472 05-10-2019 15:15:00 12.2 C 77 % 8.29 C
473 05-10-2019 15:20:00 12.2 C 77 % 8.29 C
474 05-10-2019 15:25:00 12.2 C 76 % 8.1 C
475 05-10-2019 15:30:00 12.2 C 77 % 8.29 C
Sensor: Nr:Datum:Temp:Feuchte:Taupunkt:
Aussen-T/F 476 05-10-2019 15:35:00 12.2 C 76 % 8.1 C
477 05-10-2019 15:40:00 12.2 C 77 % 8.29 C
478 05-10-2019 15:45:00 12.2 C 78 % 8.48 C
479 05-10-2019 15:50:00 12.3 C 77 % 8.39 C
480 05-10-2019 15:55:00 12.3 C 78 % 8.58 C
481 05-10-2019 16:00:00 12.3 C 77 % 8.39 C
482 05-10-2019 16:05:00 12.3 C 77 % 8.39 C
483 05-10-2019 16:10:00 12.3 C 78 % 8.58 C
484 05-10-2019 16:15:00 12.3 C 81 % 9.14 C
485 05-10-2019 16:20:00 12.3 C 80 % 8.95 C
486 05-10-2019 16:25:00 12.3 C 79 % 8.77 C
487 05-10-2019 16:30:00 12.3 C 80 % 8.95 C
488 05-10-2019 16:35:00 12.3 C 81 % 9.14 C
489 05-10-2019 16:40:00 12.3 C 82 % 9.32 C
490 05-10-2019 16:45:00 12.3 C 83 % 9.5 C
491 05-10-2019 16:50:00 12.3 C 84 % 9.68 C
492 05-10-2019 16:55:00 12.3 C 85 % 9.85 C
493 05-10-2019 17:00:00 12.3 C 85 % 9.85 C
494 05-10-2019 17:05:00 12.3 C 85 % 9.85 C
495 05-10-2019 17:10:00 12.3 C 86 % 10.03 C
496 05-10-2019 17:15:00 12.2 C 85 % 9.76 C
497 05-10-2019 17:20:00 12.1 C 82 % 9.12 C
498 05-10-2019 17:25:00 12.1 C 83 % 9.3 C
499 05-10-2019 17:30:00 12 C 82 % 9.03 C
500 05-10-2019 17:35:00 12 C 84 % 9.38 C
Sensor: Nr:Datum:Temp:Feuchte:Taupunkt:
Aussen-T/F 501 05-10-2019 17:40:00 11.9 C 84 % 9.29 C
502 05-10-2019 17:45:00 11.9 C 83 % 9.11 C
503 05-10-2019 17:50:00 11.9 C 85 % 9.46 C
504 05-10-2019 17:55:00 11.8 C 85 % 9.36 C
505 05-10-2019 18:00:00 11.8 C 85 % 9.36 C
506 05-10-2019 18:05:00 11.7 C 85 % 9.27 C
507 05-10-2019 18:10:00 11.5 C 85 % 9.07 C
508 05-10-2019 18:15:00 11.4 C 85 % 8.97 C
509 05-10-2019 18:20:00 11.3 C 86 % 9.05 C
510 05-10-2019 18:25:00 11.2 C 85 % 8.77 C
511 05-10-2019 18:30:00 11.1 C 86 % 8.85 C
512 05-10-2019 18:35:00 11 C 86 % 8.75 C
513 05-10-2019 18:40:00 10.8 C 86 % 8.56 C
514 05-10-2019 18:45:00 10.7 C 86 % 8.46 C
515 05-10-2019 18:50:00 10.6 C 87 % 8.53 C
516 05-10-2019 18:55:00 10.4 C 86 % 8.16 C
517 05-10-2019 19:00:00 10.3 C 86 % 8.06 C
518 05-10-2019 19:05:00 10.1 C 86 % 7.87 C
519 05-10-2019 19:10:00 9.9 C 86 % 7.67 C
520 05-10-2019 19:15:00 9.8 C 87 % 7.74 C
521 05-10-2019 19:20:00 9.7 C 87 % 7.64 C
522 05-10-2019 19:25:00 9.6 C 87 % 7.55 C
523 05-10-2019 19:30:00 9.4 C 87 % 7.35 C
524 05-10-2019 19:35:00 9.3 C 87 % 7.25 C
525 05-10-2019 19:40:00 9.2 C 86 % 6.98 C
Sensor: Nr:Datum:Temp:Feuchte:Taupunkt:
Aussen-T/F 526 05-10-2019 19:45:00 9.1 C 86 % 6.89 C
527 05-10-2019 19:50:00 8.9 C 86 % 6.69 C
528 05-10-2019 19:55:00 8.8 C 86 % 6.59 C
529 05-10-2019 20:00:00 8.7 C 87 % 6.66 C
530 05-10-2019 20:05:00 8.4 C 87 % 6.37 C
531 05-10-2019 20:10:00 8.3 C 87 % 6.27 C
532 05-10-2019 20:15:00 8.3 C 88 % 6.43 C
533 05-10-2019 20:20:00 8.3 C 88 % 6.43 C
534 05-10-2019 20:25:00 8.3 C 88 % 6.43 C
535 05-10-2019 20:30:00 8.3 C 88 % 6.43 C
536 05-10-2019 20:35:00 8.3 C 89 % 6.6 C
537 05-10-2019 20:40:00 8.3 C 89 % 6.6 C
538 05-10-2019 20:45:00 8.4 C 89 % 6.7 C
539 05-10-2019 20:50:00 8.4 C 89 % 6.7 C
540 05-10-2019 20:55:00 8.3 C 89 % 6.6 C
541 05-10-2019 21:00:00 8.3 C 89 % 6.6 C
542 05-10-2019 21:05:00 8.3 C 89 % 6.6 C
543 05-10-2019 21:10:00 8.2 C 90 % 6.66 C
544 05-10-2019 21:15:00 8.1 C 90 % 6.56 C
545 05-10-2019 21:20:00 8 C 91 % 6.62 C
546 05-10-2019 21:25:00 7.9 C 91 % 6.52 C
547 05-10-2019 21:30:00 7.8 C 91 % 6.43 C
548 05-10-2019 21:35:00 7.7 C 91 % 6.33 C
549 05-10-2019 21:40:00 7.6 C 91 % 6.23 C
550 05-10-2019 21:45:00 7.6 C 91 % 6.23 C
Sensor: Nr:Datum:Temp:Feuchte:Taupunkt:
Aussen-T/F 551 05-10-2019 21:50:00 7.5 C 92 % 6.29 C
552 05-10-2019 21:55:00 7.5 C 92 % 6.29 C
553 05-10-2019 22:00:00 7.4 C 92 % 6.19 C
554 05-10-2019 22:05:00 7.4 C 93 % 6.34 C
555 05-10-2019 22:10:00 7.5 C 93 % 6.44 C
556 05-10-2019 22:15:00 7.4 C 93 % 6.34 C
557 05-10-2019 22:20:00 7.4 C 93 % 6.34 C
558 05-10-2019 22:25:00 7.4 C 93 % 6.34 C
559 05-10-2019 22:30:00 7.4 C 93 % 6.34 C
560 05-10-2019 22:35:00 7.4 C 94 % 6.5 C
561 05-10-2019 22:40:00 7.5 C 94 % 6.6 C
562 05-10-2019 22:45:00 7.5 C 94 % 6.6 C
563 05-10-2019 22:50:00 7.5 C 94 % 6.6 C
564 05-10-2019 22:55:00 7.4 C 94 % 6.5 C
565 05-10-2019 23:00:00 7.4 C 94 % 6.5 C
566 05-10-2019 23:05:00 7.4 C 94 % 6.5 C
567 05-10-2019 23:10:00 7.3 C 94 % 6.4 C
568 05-10-2019 23:15:00 7.3 C 94 % 6.4 C
569 05-10-2019 23:20:00 7.3 C 94 % 6.4 C
570 05-10-2019 23:25:00 7.3 C 94 % 6.4 C
571 05-10-2019 23:30:00 7.3 C 94 % 6.4 C
572 05-10-2019 23:35:00 7.3 C 94 % 6.4 C
573 05-10-2019 23:40:00 7.4 C 94 % 6.5 C
574 05-10-2019 23:45:00 7.4 C 94 % 6.5 C
575 05-10-2019 23:50:00 7.4 C 94 % 6.5 C
Sensor: Nr:Datum:Temp:Feuchte:Taupunkt:
Aussen-T/F 576 05-10-2019 23:55:00 7.4 C 94 % 6.5 C

Legende:
   Min
   Max


Maximal/Minimal-Werte vom 04.10.2019 - 05.10.2019

Sensor Min Max Avg
Temp
(Aussen-T/F)
7.3 °C
05-10-2019  23:10:00
14.2 °C
04-10-2019  16:00:00
10.48 °C
Feuchte
(Aussen-T/F)
76 %
05-10-2019  13:35:00
97 %
04-10-2019  01:45:00
91.55 %
Taupunkt
(Aussen-T/F)
6.19 C
05-10-2019  22:00:00
12.65 C
04-10-2019  16:35:00
9.12 C

Die Daten stammen von einer Davis Vantage Pro 2 Wetter-Station und werden unter Linux mit der Software wview2wettercgi und aufbereitet. Alle Angaben erfolgen ohne Gewähr für ihre Vollständigkeit oder Richtigkeit.
Kontakt: Rainer Krienke krienke@uni-koblenz.de . Meine Webseiten an der Uni Koblenz oder privat.
Version: $Revision: 0.78 $